createdAt,value
2019-05-01T12:48:42.793Z,53.47
2019-05-01T12:49:42.774Z,53.57
2019-05-01T12:50:42.762Z,53.47
2019-05-01T12:51:42.766Z,53.27
2019-05-01T12:52:42.742Z,52.59
2019-05-01T12:53:42.728Z,52.49
2019-05-01T12:54:42.719Z,53.32
2019-05-01T12:55:42.730Z,53.90
2019-05-01T12:56:42.703Z,53.80
2019-05-01T12:57:42.685Z,54.80
2019-05-01T12:58:42.677Z,53.47
2019-05-01T12:59:42.669Z,53.27
2019-05-01T13:00:42.651Z,53.75
2019-05-01T13:01:42.656Z,53.14
2019-05-01T13:02:42.630Z,53.22
2019-05-01T13:03:42.635Z,51.72
2019-05-01T13:04:42.620Z,52.32
2019-05-01T13:05:42.595Z,52.34
2019-05-01T13:06:49.244Z,52.62
2019-05-01T13:07:43.571Z,52.52
2019-05-01T13:08:42.566Z,51.19
2019-05-01T13:09:42.555Z,51.82
2019-05-01T13:10:42.564Z,51.29
2019-05-01T13:11:42.538Z,52.59
2019-05-01T13:12:42.521Z,51.09
2019-05-01T13:13:42.517Z,51.59
2019-05-01T13:14:42.517Z,51.49
2019-05-01T13:15:42.493Z,51.79
2019-05-01T13:16:42.503Z,51.67
2019-05-01T13:17:42.468Z,50.26
2019-05-01T13:18:42.459Z,50.16
2019-05-01T13:19:43.433Z,50.74
2019-05-01T13:20:42.436Z,50.54
2019-05-01T13:21:42.429Z,49.74
2019-05-01T13:22:42.409Z,50.64
2019-05-01T13:23:42.415Z,49.84
2019-05-01T13:24:42.389Z,50.44
2019-05-01T13:25:42.375Z,50.34
2019-05-01T13:26:42.417Z,49.91
2019-05-01T13:27:42.358Z,49.11
2019-05-01T13:28:42.343Z,49.19
2019-05-01T13:29:42.339Z,49.69
2019-05-01T13:30:42.326Z,48.29
2019-05-01T13:31:42.332Z,48.49
2019-05-01T13:32:42.304Z,48.97
2019-05-01T13:33:42.328Z,47.87
2019-05-01T13:34:42.328Z,47.95
2019-05-01T13:35:42.265Z,47.92
2019-05-01T13:36:42.291Z,47.71
2019-05-01T13:37:42.262Z,46.50
2019-05-01T13:38:42.235Z,47.58
2019-05-01T13:39:42.223Z,46.56
2019-05-01T13:40:42.219Z,46.44
2019-05-01T13:41:42.213Z,45.62
2019-05-01T13:42:42.192Z,45.70
2019-05-01T13:43:42.179Z,44.20
2019-05-01T13:44:42.169Z,44.48
2019-05-01T13:45:42.173Z,43.79
2019-05-01T13:46:42.147Z,43.98
2019-05-01T13:47:42.152Z,43.57
2019-05-01T13:48:42.138Z,43.49
2019-05-01T13:49:42.114Z,43.76
2019-05-01T13:50:42.112Z,42.86
2019-05-01T13:51:42.095Z,44.16
2019-05-01T13:52:42.095Z,43.44
2019-05-01T13:53:42.072Z,43.35
2019-05-01T13:54:42.058Z,42.45
2019-05-01T13:55:42.167Z,42.45
2019-05-01T13:56:42.043Z,43.05
2019-05-01T13:57:42.043Z,42.33
2019-05-01T13:58:42.028Z,42.63
2019-05-01T13:59:42.002Z,41.31
2019-05-01T14:00:41.991Z,40.92
2019-05-01T14:01:42.002Z,41.39
2019-05-01T14:02:42.000Z,41.42
2019-05-01T14:03:42.035Z,41.71
2019-05-01T14:04:41.995Z,41.36
2019-05-01T14:05:42.028Z,41.46
2019-05-01T14:06:41.995Z,42.97
2019-05-01T14:07:41.931Z,42.99
2019-05-01T14:08:41.912Z,42.59
2019-05-01T14:09:42.576Z,43.79
2019-05-01T14:10:41.960Z,43.19
2019-05-01T14:11:41.996Z,43.08
2019-05-01T14:12:42.100Z,44.08
2019-05-01T14:13:41.918Z,43.49
2019-05-01T14:14:41.985Z,43.38
2019-05-01T14:15:41.866Z,43.29
2019-05-01T14:16:41.905Z,43.76
2019-05-01T14:17:42.008Z,42.67
2019-05-01T14:18:41.795Z,43.46
2019-05-01T14:19:41.890Z,43.27
2019-05-01T14:20:41.866Z,42.55
2019-05-01T14:21:41.831Z,41.25
2019-05-01T14:22:41.762Z,41.16
2019-05-01T14:23:41.760Z,42.25
2019-05-01T14:24:41.731Z,42.05
2019-05-01T14:25:41.718Z,41.53
2019-05-01T14:26:41.707Z,41.63
2019-05-01T14:27:41.712Z,41.63
2019-05-01T14:28:41.685Z,41.53
2019-05-01T14:29:41.674Z,41.36
2019-05-01T14:30:41.664Z,41.67
2019-05-01T14:31:41.660Z,42.27
2019-05-01T14:32:41.673Z,43.08
2019-05-01T14:33:41.630Z,42.61
2019-05-01T14:34:41.627Z,42.73
2019-05-01T14:35:41.610Z,43.93
2019-05-01T14:36:41.599Z,43.52
2019-05-01T14:37:41.591Z,43.75
2019-05-01T14:38:41.586Z,44.65
2019-05-01T14:39:41.578Z,43.75
2019-05-01T14:40:41.557Z,43.93
2019-05-01T14:41:41.546Z,44.24
2019-05-01T14:42:41.550Z,43.93
2019-05-01T14:43:41.542Z,43.73
2019-05-01T14:44:41.513Z,43.63
2019-05-01T14:45:41.507Z,43.13
2019-05-01T14:46:41.493Z,43.43
2019-05-01T14:47:41.482Z,42.93
2019-05-01T14:48:41.476Z,44.12
2019-05-01T14:49:41.468Z,43.85
2019-05-01T14:50:41.451Z,44.12
2019-05-01T14:51:41.451Z,43.93
2019-05-01T14:52:41.426Z,43.85
2019-05-01T14:53:41.431Z,43.95
2019-05-01T14:54:41.409Z,44.05
2019-05-01T14:55:41.427Z,43.55
2019-05-01T14:56:43.316Z,44.02
2019-05-01T14:57:41.407Z,44.12
2019-05-01T14:58:41.526Z,44.02
2019-05-01T14:59:41.349Z,43.93
2019-05-01T15:00:41.375Z,43.63
2019-05-01T15:01:41.327Z,43.93
2019-05-01T15:02:41.322Z,43.23
2019-05-01T15:03:41.319Z,43.85
2019-05-01T15:04:41.308Z,43.67
2019-05-01T15:05:41.285Z,44.07
2019-05-01T15:06:41.275Z,44.09
2019-05-01T15:07:43.559Z,43.69
2019-05-01T15:08:41.267Z,44.21
2019-05-01T15:09:41.275Z,44.73
2019-05-01T15:10:41.231Z,45.73
2019-05-01T15:11:41.218Z,44.55
2019-05-01T15:12:41.208Z,44.63
2019-05-01T15:13:41.203Z,44.53
2019-05-01T15:14:41.197Z,43.63
2019-05-01T15:15:41.172Z,44.81
2019-05-01T15:16:41.174Z,43.81
2019-05-01T15:17:41.151Z,44.81
2019-05-01T15:18:41.154Z,43.61
2019-05-01T15:19:41.142Z,43.91
2019-05-01T15:20:41.118Z,44.09
2019-05-01T15:21:41.147Z,43.97
2019-05-01T15:22:41.100Z,44.07
2019-05-01T15:23:53.126Z,43.77
2019-05-01T15:24:42.071Z,42.87
2019-05-01T15:25:41.074Z,43.37
2019-05-01T15:26:41.056Z,43.79
2019-05-01T15:27:41.068Z,43.87
2019-05-01T15:28:41.040Z,43.59
2019-05-01T15:29:41.018Z,44.29
2019-05-01T15:30:41.005Z,44.01
2019-05-01T15:31:40.996Z,44.73
2019-05-01T15:32:40.983Z,44.65
2019-05-01T15:33:41.000Z,45.87
2019-05-01T15:34:40.962Z,46.30
2019-05-01T15:35:40.966Z,46.59
2019-05-01T15:36:40.942Z,46.42
2019-05-01T15:37:40.933Z,46.44
2019-05-01T15:38:40.929Z,47.76
2019-05-01T15:39:40.914Z,47.86
2019-05-01T15:40:40.893Z,48.41
2019-05-01T15:41:40.917Z,48.13
2019-05-01T15:42:40.871Z,49.96
2019-05-01T15:43:40.868Z,51.09
2019-05-01T15:44:40.849Z,51.51
2019-05-01T15:45:40.844Z,52.34
2019-05-01T15:46:40.824Z,52.26
2019-05-01T15:47:40.841Z,52.77
2019-05-01T15:48:41.052Z,53.00
2019-05-01T15:49:40.797Z,52.49
2019-05-01T15:50:43.228Z,53.50
2019-05-01T15:51:40.797Z,53.72
2019-05-01T15:52:40.762Z,54.33
2019-05-01T15:53:40.762Z,54.63
2019-05-01T15:54:40.746Z,54.83
2019-05-01T15:55:40.724Z,54.23
2019-05-01T15:56:40.723Z,55.06
2019-05-01T15:57:40.702Z,54.46
2019-05-01T15:58:40.698Z,54.96
2019-05-01T15:59:40.691Z,55.16
2019-05-01T16:00:40.672Z,54.66
2019-05-01T16:01:40.658Z,54.58
2019-05-01T16:02:40.648Z,55.39
2019-05-01T16:03:40.636Z,55.49
2019-05-01T16:04:40.652Z,55.79
2019-05-01T16:05:40.631Z,56.32
2019-05-01T16:06:40.606Z,56.22
2019-05-01T16:07:40.603Z,56.22
2019-05-01T16:08:40.589Z,55.84
2019-05-01T16:09:40.579Z,55.74
2019-05-01T16:10:40.563Z,56.24
2019-05-01T16:11:40.554Z,56.27
2019-05-01T16:12:40.544Z,55.84
2019-05-01T16:13:40.523Z,56.04
2019-05-01T16:14:40.558Z,56.35
2019-05-01T16:15:40.505Z,57.15
2019-05-01T16:16:40.492Z,56.24
2019-05-01T16:17:40.478Z,56.17
2019-05-01T16:18:40.482Z,56.77
2019-05-01T16:19:40.468Z,57.18
2019-05-01T16:20:40.446Z,57.28
2019-05-01T16:21:40.433Z,56.81
2019-05-01T16:22:40.424Z,55.97
2019-05-01T16:23:40.411Z,55.99
2019-05-01T16:24:40.410Z,55.99
2019-05-01T16:25:40.393Z,56.07
2019-05-01T16:26:40.387Z,57.21
2019-05-01T16:27:40.385Z,56.70
2019-05-01T16:28:40.370Z,57.41
2019-05-01T16:29:40.354Z,57.21
2019-05-01T16:30:40.526Z,57.21
2019-05-01T16:31:40.319Z,57.31
2019-05-01T16:32:40.309Z,57.21
2019-05-01T16:33:40.301Z,57.61
2019-05-01T16:34:40.303Z,57.31
2019-05-01T16:35:40.273Z,57.71
2019-05-01T16:36:40.264Z,57.54
2019-05-01T16:37:40.252Z,57.31
2019-05-01T16:38:40.251Z,57.43
2019-05-01T16:39:40.257Z,57.84
2019-05-01T16:40:40.216Z,57.71
2019-05-01T16:41:40.289Z,57.74
2019-05-01T16:42:40.246Z,57.84
2019-05-01T16:43:40.197Z,57.64
2019-05-01T16:44:40.200Z,57.54
2019-05-01T16:45:40.173Z,57.54
2019-05-01T16:46:40.152Z,57.36
2019-05-01T16:47:40.141Z,57.94
2019-05-01T16:48:40.132Z,57.34
2019-05-01T16:49:40.122Z,57.94
2019-05-01T16:50:40.121Z,57.67
2019-05-01T16:51:40.104Z,57.34
2019-05-01T16:52:40.118Z,57.23
2019-05-01T16:53:40.075Z,57.26
2019-05-01T16:54:40.066Z,57.64
2019-05-01T16:55:40.118Z,57.54
2019-05-01T16:56:40.049Z,57.76
2019-05-01T16:57:40.030Z,57.54
2019-05-01T16:58:40.018Z,58.25
2019-05-01T16:59:40.022Z,57.97
2019-05-01T17:00:40.018Z,58.07
2019-05-01T17:01:39.999Z,57.97
2019-05-01T17:02:39.975Z,57.87
2019-05-01T17:03:39.970Z,58.00
2019-05-01T17:04:39.949Z,58.30
2019-05-01T17:05:39.951Z,57.89
2019-05-01T17:06:39.926Z,57.79
2019-05-01T17:07:39.921Z,58.20
2019-05-01T17:08:39.907Z,57.82
2019-05-01T17:09:39.974Z,59.00
2019-05-01T17:10:39.943Z,58.33
2019-05-01T17:11:39.917Z,59.71
2019-05-01T17:12:39.868Z,58.80
2019-05-01T17:13:39.851Z,59.64
2019-05-01T17:14:39.847Z,59.74
2019-05-01T17:15:39.840Z,59.81
2019-05-01T17:16:39.848Z,59.34
2019-05-01T17:17:39.809Z,59.31
2019-05-01T17:18:39.792Z,58.80
2019-05-01T17:19:39.781Z,59.61
2019-05-01T17:20:39.781Z,59.03
2019-05-01T17:21:39.761Z,59.14
2019-05-01T17:22:39.755Z,59.54
2019-05-01T17:23:39.734Z,60.05
2019-05-01T17:24:39.728Z,59.84
2019-05-01T17:25:39.722Z,59.44
2019-05-01T17:26:39.701Z,59.77
2019-05-01T17:27:39.691Z,59.77
2019-05-01T17:28:39.678Z,59.36
2019-05-01T17:29:39.670Z,59.36
2019-05-01T17:30:39.694Z,60.07
2019-05-01T17:31:39.643Z,59.97
2019-05-01T17:32:43.859Z,59.56
2019-05-01T17:33:39.622Z,59.56
2019-05-01T17:34:39.635Z,60.07
2019-05-01T17:35:41.685Z,59.67
2019-05-01T17:36:39.587Z,59.70
2019-05-01T17:37:39.578Z,59.80
2019-05-01T17:38:49.314Z,59.70
2019-05-01T17:39:40.586Z,59.29
2019-05-01T17:40:39.571Z,59.59
2019-05-01T17:41:39.530Z,59.49
2019-05-01T17:42:39.522Z,60.41
2019-05-01T17:43:39.512Z,60.10
2019-05-01T17:44:39.682Z,60.61
2019-05-01T17:45:39.485Z,61.11
2019-05-01T17:46:41.779Z,60.71
2019-05-01T17:47:40.460Z,61.01
2019-05-01T17:48:39.475Z,60.84
2019-05-01T17:49:41.023Z,60.13
2019-05-01T17:50:40.456Z,60.23
2019-05-01T17:51:42.708Z,61.14
2019-05-01T17:52:40.434Z,60.94
2019-05-01T17:53:39.408Z,61.14
2019-05-01T17:54:39.406Z,61.24
2019-05-01T17:55:39.393Z,61.35
2019-05-01T17:56:39.394Z,61.58
2019-05-01T17:57:39.360Z,61.44
2019-05-01T17:58:39.366Z,61.58
2019-05-01T17:59:39.368Z,62.08
2019-05-01T18:00:39.345Z,61.78
2019-05-01T18:01:39.384Z,62.08
2019-05-01T18:02:39.307Z,62.08
2019-05-01T18:03:39.313Z,61.91
2019-05-01T18:04:39.323Z,62.29
2019-05-01T18:05:39.292Z,62.31
2019-05-01T18:06:41.949Z,62.31
2019-05-01T18:07:40.282Z,62.41
2019-05-01T18:08:39.229Z,62.41
2019-05-01T18:09:39.235Z,62.92
2019-05-01T18:10:39.826Z,62.82
2019-05-01T18:11:39.276Z,62.21
2019-05-01T18:12:39.209Z,62.52
2019-05-01T18:13:39.178Z,62.52
2019-05-01T18:14:39.178Z,62.82
2019-05-01T18:15:39.177Z,62.52
2019-05-01T18:16:39.214Z,62.65
2019-05-01T18:17:39.125Z,63.06
2019-05-01T18:18:39.125Z,62.92
2019-05-01T18:19:39.118Z,63.06
2019-05-01T18:20:39.107Z,63.15
2019-05-01T18:21:39.120Z,63.35
2019-05-01T18:22:39.075Z,63.86
2019-05-01T18:23:42.741Z,63.35
2019-05-01T18:24:40.043Z,63.06
2019-05-01T18:25:39.033Z,63.46
2019-05-01T18:26:43.496Z,63.69
2019-05-01T18:27:40.007Z,63.69
2019-05-01T18:28:39.001Z,63.76
2019-05-01T18:29:39.733Z,63.69
2019-05-01T18:30:38.977Z,63.89
2019-05-01T18:31:38.982Z,63.79
2019-05-01T18:32:41.497Z,63.79
2019-05-01T18:33:39.945Z,64.00
2019-05-01T18:34:39.503Z,63.79
2019-05-01T18:35:38.944Z,63.69
2019-05-01T18:36:38.918Z,63.79
2019-05-01T18:37:38.898Z,64.20
2019-05-01T18:38:42.887Z,64.91
2019-05-01T18:39:39.873Z,64.53
2019-05-01T18:40:38.865Z,64.84
2019-05-01T18:41:38.859Z,64.64
2019-05-01T18:42:38.844Z,64.43
2019-05-01T18:43:38.971Z,65.24
2019-05-01T18:44:42.610Z,64.94
2019-05-01T18:45:39.807Z,65.34
2019-05-01T18:46:38.827Z,65.04
2019-05-01T18:47:38.786Z,65.27
2019-05-01T18:48:38.772Z,64.76
2019-05-01T18:49:38.834Z,65.78
2019-05-01T18:50:38.760Z,64.87
2019-05-01T18:51:40.757Z,64.46
2019-05-01T18:52:38.735Z,65.07
2019-05-01T18:53:38.748Z,65.07
2019-05-01T18:54:38.738Z,65.68
2019-05-01T18:55:38.722Z,65.71
2019-05-01T18:56:39.602Z,65.37
2019-05-01T18:57:38.714Z,65.30
2019-05-01T18:58:38.658Z,65.10
2019-05-01T18:59:38.650Z,65.41
2019-05-01T19:00:38.640Z,65.17
2019-05-01T19:01:38.627Z,65.51
2019-05-01T19:02:39.057Z,66.19
2019-05-01T19:03:42.468Z,65.51
2019-05-01T19:04:39.646Z,66.02
2019-05-01T19:05:38.584Z,65.61
2019-05-01T19:06:41.266Z,65.88
2019-05-01T19:07:38.568Z,66.12
2019-05-01T19:08:38.618Z,66.42
2019-05-01T19:09:38.542Z,66.93
2019-05-01T19:10:38.576Z,65.81
2019-05-01T19:11:38.627Z,66.83
2019-05-01T19:12:38.517Z,66.22
2019-05-01T19:13:38.497Z,65.94
2019-05-01T19:14:38.509Z,66.02
2019-05-01T19:15:38.471Z,66.25
2019-05-01T19:16:39.946Z,66.86
2019-05-01T19:17:39.484Z,66.55
2019-05-01T19:18:38.435Z,66.96
2019-05-01T19:19:38.439Z,66.76
2019-05-01T19:20:38.440Z,66.66
2019-05-01T19:21:41.876Z,66.96
2019-05-01T19:22:39.411Z,66.86
2019-05-01T19:23:38.377Z,67.47
2019-05-01T19:24:40.202Z,66.69
2019-05-01T19:25:38.352Z,67.27
2019-05-01T19:26:42.519Z,66.76
2019-05-01T19:27:38.356Z,66.46
2019-05-01T19:28:38.373Z,66.79
2019-05-01T19:29:38.311Z,66.69
2019-05-01T19:30:38.296Z,66.58
2019-05-01T19:31:38.286Z,66.49
2019-05-01T19:32:38.289Z,66.79
2019-05-01T19:33:38.265Z,67.30
2019-05-01T19:34:38.252Z,66.99
2019-05-01T19:35:38.242Z,66.89
2019-05-01T19:36:40.370Z,66.49
2019-05-01T19:37:39.236Z,67.02
2019-05-01T19:38:38.212Z,68.62
2019-05-01T19:39:43.827Z,68.65
2019-05-01T19:40:39.199Z,68.65
2019-05-01T19:41:38.179Z,68.65
2019-05-01T19:42:40.070Z,68.65
2019-05-01T19:43:40.336Z,68.88
2019-05-01T19:44:38.175Z,67.97
2019-05-01T19:45:38.140Z,68.68
2019-05-01T19:46:38.631Z,68.88
2019-05-01T19:47:38.125Z,68.65
2019-05-01T19:48:38.126Z,68.99
2019-05-01T19:49:38.087Z,68.68
2019-05-01T19:50:40.004Z,68.79
2019-05-01T19:51:39.067Z,68.68
2019-05-01T19:52:39.832Z,69.09
2019-05-01T19:53:38.047Z,69.90
2019-05-01T19:54:38.033Z,69.93
2019-05-01T19:55:39.895Z,70.14
2019-05-01T19:56:39.001Z,70.24
2019-05-01T19:57:37.992Z,70.65
2019-05-01T19:58:38.038Z,71.26
2019-05-01T19:59:37.979Z,71.06
2019-05-01T20:00:37.955Z,71.56
2019-05-01T20:01:43.737Z,70.99
2019-05-01T20:02:38.951Z,70.48
2019-05-01T20:03:38.611Z,70.99
2019-05-01T20:04:37.914Z,71.91
2019-05-01T20:05:37.963Z,71.91
2019-05-01T20:06:39.959Z,72.11
2019-05-01T20:07:37.875Z,72.01
2019-05-01T20:08:37.889Z,72.11
2019-05-01T20:09:37.857Z,72.31
2019-05-01T20:10:37.852Z,72.01
2019-05-01T20:11:37.836Z,72.01
2019-05-01T20:12:37.822Z,72.52
2019-05-01T20:13:37.854Z,72.21
2019-05-01T20:14:37.801Z,72.14
2019-05-01T20:15:37.796Z,72.14
2019-05-01T20:16:37.774Z,72.01
2019-05-01T20:17:37.762Z,71.84
2019-05-01T20:18:37.762Z,72.52
2019-05-01T20:19:37.739Z,72.52
2019-05-01T20:20:37.734Z,72.75
2019-05-01T20:21:37.724Z,72.86
2019-05-01T20:22:37.708Z,72.65
2019-05-01T20:23:37.717Z,73.77
2019-05-01T20:24:39.940Z,73.36
2019-05-01T20:25:38.681Z,74.18
2019-05-01T20:26:37.664Z,74.28
2019-05-01T20:27:40.158Z,73.36
2019-05-01T20:28:37.683Z,73.71
2019-05-01T20:29:37.628Z,73.77
2019-05-01T20:30:37.622Z,73.50
2019-05-01T20:31:37.606Z,74.49
2019-05-01T20:32:37.593Z,74.01
2019-05-01T20:33:38.615Z,73.71
2019-05-01T20:34:37.572Z,73.81
2019-05-01T20:35:37.634Z,73.91
2019-05-01T20:36:37.546Z,74.42
2019-05-01T20:37:37.602Z,74.42
2019-05-01T20:38:37.535Z,74.42
2019-05-01T20:39:37.569Z,74.21
2019-05-01T20:40:37.501Z,74.73
2019-05-01T20:41:37.491Z,75.74
2019-05-01T20:42:37.495Z,75.85
2019-05-01T20:43:42.876Z,75.23
2019-05-01T20:44:38.475Z,75.64
2019-05-01T20:45:37.473Z,75.37
2019-05-01T20:46:37.436Z,75.27
2019-05-01T20:48:13.718Z,75.37
2019-05-01T20:48:38.434Z,75.27
2019-05-01T20:49:41.359Z,74.45
2019-05-01T20:50:38.411Z,73.94
2019-05-01T20:51:37.400Z,73.74
2019-05-01T20:52:37.545Z,73.64
2019-05-01T20:53:37.359Z,73.84
2019-05-01T20:54:37.354Z,74.66
2019-05-01T20:55:37.332Z,74.55
2019-05-01T20:56:37.324Z,75.27
2019-05-01T20:57:37.314Z,74.45
2019-05-01T20:58:37.305Z,75.88
2019-05-01T20:59:39.231Z,75.41
2019-05-01T21:00:37.282Z,75.20
2019-05-01T21:01:37.269Z,75.10
2019-05-01T21:02:38.905Z,75.37
2019-05-01T21:03:38.242Z,75.61
2019-05-01T21:04:37.239Z,75.07
2019-05-01T21:05:37.215Z,75.92
2019-05-01T21:06:39.188Z,76.32
2019-05-01T21:07:38.203Z,75.61
2019-05-01T21:08:39.340Z,76.22
2019-05-01T21:09:47.187Z,75.92
2019-05-01T21:10:50.021Z,76.22
2019-05-01T21:11:42.216Z,76.02
2019-05-01T21:12:38.149Z,76.53
2019-05-01T21:13:37.130Z,76.73
2019-05-01T21:14:37.124Z,76.22
2019-05-01T21:15:37.144Z,77.08
2019-05-01T21:16:39.191Z,76.97
2019-05-01T21:17:37.079Z,77.59
2019-05-01T21:18:37.081Z,77.28
2019-05-01T21:19:37.767Z,77.38
2019-05-01T21:20:37.045Z,76.97
2019-05-01T21:21:37.033Z,77.59
2019-05-01T21:22:37.021Z,77.59
2019-05-01T21:23:37.027Z,77.38
2019-05-01T21:24:37.025Z,77.89
2019-05-01T21:25:36.988Z,77.89
2019-05-01T21:26:36.978Z,77.93
2019-05-01T21:27:37.007Z,77.72
2019-05-01T21:28:36.960Z,77.22
2019-05-01T21:29:36.951Z,77.42
2019-05-01T21:30:38.724Z,76.60
2019-05-01T21:31:37.924Z,77.22
2019-05-01T21:32:36.927Z,77.22
2019-05-01T21:33:40.851Z,77.42
2019-05-01T21:34:37.904Z,78.03
2019-05-01T21:35:36.888Z,77.42
2019-05-01T21:36:36.864Z,77.93
2019-05-01T21:37:36.853Z,78.07
2019-05-01T21:38:36.843Z,77.97
2019-05-01T21:39:36.851Z,77.52
2019-05-01T21:40:40.663Z,77.25
2019-05-01T21:41:36.806Z,77.93
2019-05-01T21:42:36.795Z,77.86
2019-05-01T21:43:37.195Z,77.62
2019-05-01T21:44:36.782Z,77.86
2019-05-01T21:45:36.761Z,77.66
2019-05-01T21:46:39.118Z,77.97
2019-05-01T21:47:36.756Z,77.04
2019-05-01T21:48:36.732Z,77.25
2019-05-01T21:49:36.739Z,77.35
2019-05-01T21:50:36.707Z,77.35
2019-05-01T21:51:37.146Z,76.84
2019-05-01T21:52:36.683Z,77.25
2019-05-01T21:53:37.312Z,77.15
2019-05-01T21:54:37.679Z,76.84
2019-05-01T21:55:36.646Z,77.45
2019-05-01T21:56:36.897Z,77.66
2019-05-01T21:57:40.116Z,77.86
2019-05-01T21:58:36.628Z,78.07
2019-05-01T21:59:39.688Z,77.97
2019-05-01T22:00:37.600Z,78.27
2019-05-01T22:01:36.578Z,78.38
2019-05-01T22:02:36.568Z,78.27
2019-05-01T22:03:36.565Z,79.09
2019-05-01T22:04:36.547Z,78.78
2019-05-01T22:05:39.580Z,78.58
2019-05-01T22:06:36.522Z,78.72
2019-05-01T22:07:36.513Z,78.52
2019-05-01T22:08:39.138Z,78.27
2019-05-01T22:09:36.540Z,78.27
2019-05-01T22:10:36.503Z,77.90
2019-05-01T22:11:37.780Z,78.58
2019-05-01T22:12:36.465Z,78.31
2019-05-01T22:13:36.444Z,79.23
2019-05-01T22:14:37.008Z,79.33
2019-05-01T22:15:36.438Z,79.64
2019-05-01T22:16:36.421Z,79.02
2019-05-01T22:17:36.534Z,78.52
2019-05-01T22:18:36.407Z,80.05
2019-05-01T22:19:36.374Z,80.66
2019-05-01T22:20:36.429Z,81.07
2019-05-01T22:21:36.366Z,80.66
2019-05-01T22:22:38.856Z,81.07
2019-05-01T22:23:37.350Z,80.08
2019-05-01T22:24:36.320Z,79.94
2019-05-01T22:25:36.316Z,79.23
2019-05-01T22:26:36.305Z,79.74
2019-05-01T22:27:36.286Z,79.94
2019-05-01T22:28:36.280Z,80.15
2019-05-01T22:29:36.264Z,79.94
2019-05-01T22:30:36.282Z,80.05
2019-05-01T22:31:36.243Z,79.94
2019-05-01T22:32:36.276Z,80.25
2019-05-01T22:33:36.238Z,80.05
2019-05-01T22:34:36.211Z,79.53
2019-05-01T22:35:36.208Z,79.13
2019-05-01T22:36:36.245Z,79.13
2019-05-01T22:37:36.172Z,79.84
2019-05-01T22:38:36.158Z,79.13
2019-05-01T22:39:36.148Z,79.74
2019-05-01T22:40:36.156Z,79.13
2019-05-01T22:41:36.123Z,78.52
2019-05-01T22:42:36.112Z,78.31
2019-05-01T22:43:36.114Z,78.11
2019-05-01T22:44:36.094Z,78.72
2019-05-01T22:45:36.099Z,78.55
2019-05-01T22:46:39.151Z,79.43
2019-05-01T22:47:36.061Z,79.13
2019-05-01T22:48:36.046Z,78.31
2019-05-01T22:49:36.036Z,77.53
2019-05-01T22:50:36.032Z,77.80
2019-05-01T22:51:36.010Z,77.70
2019-05-01T22:52:36.000Z,77.49
2019-05-01T22:53:35.998Z,77.29
2019-05-01T22:54:35.980Z,77.39
2019-05-01T22:55:35.969Z,76.91
2019-05-01T22:56:35.962Z,76.67
2019-05-01T22:57:35.955Z,76.57
2019-05-01T22:58:35.934Z,77.19
2019-05-01T22:59:35.923Z,77.59
2019-05-01T23:00:35.909Z,76.88
2019-05-01T23:01:35.931Z,76.78
2019-05-01T23:02:35.884Z,76.57
2019-05-01T23:03:40.537Z,75.75
2019-05-01T23:04:36.872Z,76.47
2019-05-01T23:05:35.859Z,76.57
2019-05-01T23:06:37.184Z,76.67
2019-05-01T23:07:36.847Z,76.37
2019-05-01T23:08:35.819Z,75.89
2019-05-01T23:09:35.806Z,75.55
2019-05-01T23:10:35.797Z,75.75
2019-05-01T23:11:35.793Z,75.55
2019-05-01T23:12:35.780Z,76.30
2019-05-01T23:13:35.763Z,76.26
2019-05-01T23:14:35.756Z,75.24
2019-05-01T23:15:35.744Z,74.93
2019-05-01T23:16:35.744Z,74.84
2019-05-01T23:17:39.480Z,74.66
2019-05-01T23:18:36.707Z,74.63
2019-05-01T23:19:35.702Z,74.63
2019-05-01T23:20:39.177Z,74.26
2019-05-01T23:21:35.687Z,74.15
2019-05-01T23:22:35.674Z,74.63
2019-05-01T23:23:35.671Z,74.87
2019-05-01T23:24:35.635Z,74.05
2019-05-01T23:25:36.626Z,73.85
2019-05-01T23:26:36.647Z,74.05
2019-05-01T23:27:35.622Z,74.66
2019-05-01T23:28:39.844Z,74.76
2019-05-01T23:29:36.580Z,74.35
2019-05-01T23:30:35.579Z,74.73
2019-05-01T23:31:35.580Z,74.66
2019-05-01T23:32:35.561Z,74.35
2019-05-01T23:33:35.548Z,74.15
2019-05-01T23:34:35.525Z,74.35
2019-05-01T23:35:35.513Z,74.05
2019-05-01T23:36:35.534Z,74.76
2019-05-01T23:37:35.497Z,74.56
2019-05-01T23:38:35.483Z,74.66
2019-05-01T23:39:40.520Z,74.66
2019-05-01T23:40:36.488Z,74.66
2019-05-01T23:41:45.649Z,74.56
2019-05-01T23:42:36.442Z,74.76
2019-05-01T23:43:35.424Z,74.26
2019-05-01T23:44:38.229Z,74.35
2019-05-01T23:45:36.402Z,74.66
2019-05-01T23:46:35.401Z,74.66
2019-05-01T23:47:35.399Z,74.97
2019-05-01T23:48:35.367Z,74.80
2019-05-01T23:49:35.359Z,75.82
2019-05-01T23:50:35.345Z,75.62
2019-05-01T23:51:35.348Z,75.01
2019-05-01T23:52:38.741Z,74.60
2019-05-01T23:53:35.337Z,75.21
2019-05-01T23:54:35.302Z,75.68
2019-05-01T23:55:35.287Z,76.03
2019-05-01T23:56:36.353Z,75.52
2019-05-01T23:57:35.268Z,75.21
2019-05-01T23:58:35.256Z,75.93
2019-05-01T23:59:35.242Z,75.62
